createdAt,value
2019-04-01T00:04:00.355Z,62.55
2019-04-01T00:08:05.243Z,62.15
2019-04-01T00:12:10.135Z,61.80
2019-04-01T00:16:15.032Z,62.70
2019-04-01T00:20:19.944Z,62.80
2019-04-01T00:24:24.832Z,63.00
2019-04-01T00:28:29.733Z,62.92
2019-04-01T00:32:34.633Z,63.18
2019-04-01T00:36:40.501Z,63.27
2019-04-01T00:40:45.399Z,62.75
2019-04-01T00:44:50.293Z,62.86
2019-04-01T00:48:55.197Z,63.07
2019-04-01T00:53:00.091Z,63.71
2019-04-01T00:57:05.011Z,63.82
2019-04-01T01:01:10.401Z,63.08
2019-04-01T01:05:15.297Z,64.27
2019-04-01T01:09:20.200Z,64.51
2019-04-01T01:13:25.097Z,64.42
2019-04-01T01:17:29.997Z,64.47
2019-04-01T01:21:35.266Z,64.54
2019-04-01T01:25:40.150Z,64.50
2019-04-01T01:29:45.053Z,64.47
2019-04-01T01:33:50.927Z,64.20
2019-04-01T01:37:55.825Z,64.33
2019-04-01T01:42:00.718Z,64.26
2019-04-01T01:46:05.622Z,64.08
2019-04-01T01:50:10.512Z,64.13
2019-04-01T01:54:15.410Z,64.02
2019-04-01T01:58:20.307Z,64.47
2019-04-01T02:02:25.205Z,64.94
2019-04-01T02:06:30.124Z,65.41
2019-04-01T02:10:35.011Z,65.11
2019-04-01T02:14:39.910Z,65.65
2019-04-01T02:18:44.814Z,66.14
2019-04-01T02:22:49.721Z,65.90
2019-04-01T02:26:54.617Z,64.36
2019-04-01T02:30:59.507Z,64.31
2019-04-01T02:35:05.441Z,64.52
2019-04-01T02:39:10.343Z,65.02
2019-04-01T02:43:15.251Z,65.19
2019-04-01T02:47:20.219Z,65.18
2019-04-01T02:51:25.107Z,65.35
2019-04-01T02:55:30.018Z,65.09
2019-04-01T02:59:34.926Z,64.71
2019-04-01T03:03:39.793Z,65.32
2019-04-01T03:07:44.751Z,65.66
2019-04-01T03:11:49.628Z,66.02
2019-04-01T03:15:54.523Z,65.31
2019-04-01T03:19:59.425Z,65.75
2019-04-01T03:24:04.325Z,65.94
2019-04-01T03:28:09.295Z,66.48
2019-04-01T03:32:14.184Z,66.41
2019-04-01T03:36:19.089Z,66.72
2019-04-01T03:40:23.986Z,66.90
2019-04-01T03:44:28.886Z,66.48
2019-04-01T03:48:33.782Z,65.67
2019-04-01T03:52:38.660Z,66.28
2019-04-01T03:56:43.632Z,67.03
2019-04-01T04:00:48.536Z,66.86
2019-04-01T04:04:53.427Z,66.72
2019-04-01T04:09:02.045Z,66.40
2019-04-01T04:13:04.997Z,67.00
2019-04-01T04:17:09.882Z,67.08
2019-04-01T04:21:14.780Z,66.71
2019-04-01T04:25:19.682Z,66.30
2019-04-01T04:29:24.586Z,66.68
2019-04-01T04:33:29.477Z,66.81
2019-04-01T04:37:34.365Z,66.83
2019-04-01T04:41:39.275Z,67.84
2019-04-01T04:45:44.165Z,68.02
2019-04-01T04:49:49.066Z,68.01
2019-04-01T04:53:53.950Z,68.43
2019-04-01T04:57:58.844Z,68.48
2019-04-01T05:02:03.745Z,68.16
2019-04-01T05:06:08.639Z,67.84
2019-04-01T05:10:13.535Z,67.63
2019-04-01T05:14:18.423Z,67.59
2019-04-01T05:18:23.327Z,67.45
2019-04-01T05:22:29.365Z,67.76
2019-04-01T05:26:36.201Z,68.94
2019-04-01T05:30:41.276Z,69.77
2019-04-01T05:34:46.534Z,68.60
2019-04-01T05:38:51.433Z,68.94
2019-04-01T05:42:56.395Z,69.35
2019-04-01T05:47:01.294Z,68.97
2019-04-01T05:51:06.194Z,67.87
2019-04-01T05:55:11.146Z,67.00
2019-04-01T05:59:16.917Z,66.62
2019-04-01T06:03:21.816Z,66.78
2019-04-01T06:07:27.181Z,65.93
2019-04-01T06:11:32.448Z,65.96
2019-04-01T06:15:38.187Z,66.48
2019-04-01T06:19:43.072Z,65.51
2019-04-01T06:23:47.967Z,65.07
2019-04-01T06:27:52.932Z,64.45
2019-04-01T06:31:58.380Z,63.64
2019-04-01T06:36:03.294Z,64.04
2019-04-01T06:40:08.822Z,64.13
2019-04-01T06:44:13.730Z,54.96
2019-04-01T06:48:18.632Z,46.56
2019-04-01T06:52:23.536Z,44.21
2019-04-01T06:56:28.448Z,42.79
2019-04-01T07:00:33.347Z,42.89
2019-04-01T07:04:38.239Z,43.96
2019-04-01T07:08:43.137Z,46.81
2019-04-01T07:12:48.099Z,49.24
2019-04-01T07:16:53.077Z,49.93
2019-04-01T07:20:57.950Z,50.70
2019-04-01T07:25:03.114Z,52.20
2019-04-01T07:29:08.006Z,53.22
2019-04-01T07:33:12.972Z,53.21
2019-04-01T07:37:17.868Z,53.70
2019-04-01T07:41:22.740Z,54.00
2019-04-01T07:45:28.110Z,53.83
2019-04-01T07:49:33.098Z,53.60
2019-04-01T07:53:37.975Z,53.53
2019-04-01T07:57:42.869Z,54.00
2019-04-01T08:01:48.027Z,54.06
2019-04-01T08:05:52.934Z,53.54
2019-04-01T08:09:57.834Z,53.48
2019-04-01T08:14:03.605Z,53.32
2019-04-01T08:18:08.487Z,53.60
2019-04-01T08:22:13.417Z,52.76
2019-04-01T08:26:18.319Z,53.17
2019-04-01T08:30:23.216Z,52.40
2019-04-01T08:34:28.181Z,51.68
2019-04-01T08:38:33.075Z,51.05
2019-04-01T08:42:38.028Z,50.46
2019-04-01T08:46:43.004Z,50.36
2019-04-01T08:50:47.901Z,51.09
2019-04-01T08:54:52.793Z,50.22
2019-04-01T08:58:57.694Z,49.75
2019-04-01T09:03:02.588Z,50.27
2019-04-01T09:07:07.499Z,49.38
2019-04-01T09:11:12.663Z,48.76
2019-04-01T09:15:17.636Z,48.96
2019-04-01T09:19:22.538Z,49.00
2019-04-01T09:23:28.271Z,48.08
2019-04-01T09:27:33.183Z,47.71
2019-04-01T09:31:38.084Z,48.65
2019-04-01T09:35:42.994Z,47.21
2019-04-01T09:39:47.895Z,48.04
2019-04-01T09:43:52.804Z,48.08
2019-04-01T09:47:57.695Z,47.30
2019-04-01T09:52:03.999Z,47.70
2019-04-01T09:56:10.189Z,46.84
2019-04-01T10:00:15.632Z,46.26
2019-04-01T10:04:20.522Z,46.93
2019-04-01T10:08:25.437Z,46.42
2019-04-01T10:12:30.344Z,46.98
2019-04-01T10:16:35.249Z,46.28
2019-04-01T10:20:40.165Z,46.16
2019-04-01T10:24:46.039Z,46.18
2019-04-01T10:28:50.950Z,46.48
2019-04-01T10:32:55.852Z,46.38
2019-04-01T10:37:00.763Z,45.85
2019-04-01T10:41:06.634Z,46.32
2019-04-01T10:45:11.893Z,45.88
2019-04-01T10:49:16.894Z,46.32
2019-04-01T10:53:21.792Z,45.65
2019-04-01T10:57:26.734Z,46.16
2019-04-01T11:01:31.707Z,46.09
2019-04-01T11:05:36.551Z,45.71
2019-04-01T11:09:41.501Z,45.74
2019-04-01T11:13:46.403Z,45.12
2019-04-01T11:17:52.439Z,45.73
2019-04-01T11:21:57.702Z,45.08
2019-04-01T11:26:02.614Z,45.52
2019-04-01T11:30:08.490Z,44.84
2019-04-01T11:34:14.419Z,45.72
2019-04-01T11:38:19.329Z,45.63
2019-04-01T11:42:24.233Z,45.20
2019-04-01T11:46:29.176Z,45.23
2019-04-01T11:50:34.175Z,45.13
2019-04-01T11:54:39.026Z,44.57
2019-04-01T11:58:43.945Z,44.21
2019-04-01T12:02:48.857Z,45.18
2019-04-01T12:06:53.775Z,44.95
2019-04-01T12:10:59.658Z,44.47
2019-04-01T12:15:05.917Z,44.03
2019-04-01T12:19:10.833Z,43.41
2019-04-01T12:23:15.743Z,43.46
2019-04-01T12:27:20.657Z,43.19
2019-04-01T12:31:25.564Z,42.37
2019-04-01T12:35:30.472Z,42.02
2019-04-01T12:39:35.391Z,41.83
2019-04-01T12:43:40.311Z,41.57
2019-04-01T12:47:45.237Z,41.70
2019-04-01T12:51:50.195Z,41.91
2019-04-01T12:55:55.131Z,41.91
2019-04-01T13:00:00.044Z,41.68
2019-04-01T13:04:05.030Z,41.34
2019-04-01T13:08:09.944Z,41.77
2019-04-01T13:12:14.850Z,41.77
2019-04-01T13:16:19.766Z,41.92
2019-04-01T13:20:37.191Z,41.36
2019-04-01T13:24:31.286Z,41.62
2019-04-01T13:28:36.225Z,41.47
2019-04-01T13:32:41.115Z,40.52
2019-04-01T13:36:46.017Z,39.73
2019-04-01T13:40:50.938Z,40.16
2019-04-01T13:44:55.853Z,40.14
2019-04-01T13:49:04.228Z,40.14
2019-04-01T13:53:07.390Z,38.96
2019-04-01T13:57:13.091Z,39.38
2019-04-01T14:01:18.486Z,39.25
2019-04-01T14:05:24.962Z,39.21
2019-04-01T14:09:30.924Z,39.94
2019-04-01T14:13:35.899Z,39.82
2019-04-01T14:17:40.802Z,39.55
2019-04-01T14:21:45.737Z,38.39
2019-04-01T14:25:50.665Z,39.18
2019-04-01T14:29:55.584Z,38.81
2019-04-01T14:34:01.274Z,38.79
2019-04-01T14:38:06.279Z,40.29
2019-04-01T14:42:11.193Z,40.59
2019-04-01T14:46:16.108Z,39.28
2019-04-01T14:50:21.014Z,38.53
2019-04-01T14:54:25.934Z,38.55
2019-04-01T14:58:30.846Z,38.59
2019-04-01T15:02:35.752Z,38.97
2019-04-01T15:06:40.667Z,38.51
2019-04-01T15:10:45.579Z,38.64
2019-04-01T15:14:50.502Z,39.23
2019-04-01T15:18:55.412Z,39.16
2019-04-01T15:23:00.335Z,39.00
2019-04-01T15:27:05.259Z,38.67
2019-04-01T15:31:10.177Z,39.14
2019-04-01T15:35:15.084Z,38.46
2019-04-01T15:39:20.300Z,38.88
2019-04-01T15:43:25.177Z,38.72
2019-04-01T15:47:30.093Z,39.12
2019-04-01T15:51:35.012Z,39.41
2019-04-01T15:55:40.039Z,39.04
2019-04-01T15:59:44.953Z,39.04
2019-04-01T16:03:49.864Z,39.55
2019-04-01T16:07:54.781Z,38.96
2019-04-01T16:11:59.696Z,38.89
2019-04-01T16:16:04.718Z,39.35
2019-04-01T16:20:09.860Z,39.57
2019-04-01T16:24:15.333Z,39.25
2019-04-01T16:28:21.168Z,39.54
2019-04-01T16:32:26.084Z,39.94
2019-04-01T16:36:31.001Z,39.96
2019-04-01T16:40:35.976Z,39.90
2019-04-01T16:44:40.889Z,40.00
2019-04-01T16:48:46.588Z,40.13
2019-04-01T16:52:51.593Z,42.06
2019-04-01T16:56:56.512Z,42.06
2019-04-01T17:01:02.616Z,42.65
2019-04-01T17:05:08.149Z,42.75
2019-04-01T17:09:13.124Z,43.26
2019-04-01T17:13:18.048Z,43.71
2019-04-01T17:17:23.399Z,43.58
2019-04-01T17:21:28.305Z,43.57
2019-04-01T17:25:33.211Z,43.38
2019-04-01T17:29:40.427Z,43.63
2019-04-01T17:33:45.334Z,43.95
2019-04-01T17:37:50.246Z,43.99
2019-04-01T17:41:55.204Z,44.15
2019-04-01T17:46:00.281Z,44.24
2019-04-01T17:50:06.825Z,44.45
2019-04-01T17:54:11.729Z,44.78
2019-04-01T17:58:16.635Z,45.00
2019-04-01T18:02:29.709Z,45.64
2019-04-01T18:06:34.606Z,46.13
2019-04-01T18:10:39.510Z,46.27
2019-04-01T18:14:44.417Z,46.40
2019-04-01T18:18:49.324Z,46.59
2019-04-01T18:22:54.234Z,46.92
2019-04-01T18:26:59.135Z,47.25
2019-04-01T18:31:04.360Z,47.79
2019-04-01T18:35:09.692Z,48.01
2019-04-01T18:39:15.309Z,48.34
2019-04-01T18:43:20.487Z,48.45
2019-04-01T18:47:25.541Z,48.40
2019-04-01T18:51:30.451Z,48.63
2019-04-01T18:55:35.368Z,48.66
2019-04-01T18:59:40.270Z,48.73
2019-04-01T19:03:45.173Z,48.77
2019-04-01T19:07:50.071Z,48.91
2019-04-01T19:12:03.753Z,48.85
2019-04-01T19:16:05.845Z,48.97
2019-04-01T19:20:11.787Z,49.43
2019-04-01T19:24:16.747Z,49.54
2019-04-01T19:28:21.630Z,50.04
2019-04-01T19:32:27.383Z,50.51
2019-04-01T19:36:32.437Z,50.76
2019-04-01T19:40:37.341Z,51.03
2019-04-01T19:44:43.199Z,51.31
2019-04-01T19:48:48.418Z,51.64
2019-04-01T19:52:55.292Z,51.54
2019-04-01T19:56:59.935Z,52.91
2019-04-01T20:01:04.913Z,51.88
2019-04-01T20:05:10.061Z,52.56
2019-04-01T20:09:14.968Z,52.36
2019-04-01T20:13:19.861Z,52.60
2019-04-01T20:17:24.763Z,53.20
2019-04-01T20:21:29.660Z,53.49
2019-04-01T20:25:34.631Z,53.65
2019-04-01T20:29:40.302Z,53.38
2019-04-01T20:33:45.514Z,53.31
2019-04-01T20:37:50.405Z,53.84
2019-04-01T20:41:55.304Z,54.22
2019-04-01T20:46:00.201Z,54.84
2019-04-01T20:50:10.117Z,55.04
2019-04-01T20:54:16.013Z,54.62
2019-04-01T20:58:22.066Z,55.13
2019-04-01T21:02:26.967Z,55.87
2019-04-01T21:06:31.870Z,56.01
2019-04-01T21:10:36.765Z,56.22
2019-04-01T21:14:41.654Z,56.87
2019-04-01T21:18:47.987Z,56.75
2019-04-01T21:22:53.144Z,57.54
2019-04-01T21:26:58.045Z,57.64
2019-04-01T21:31:02.932Z,58.31
2019-04-01T21:35:09.007Z,58.60
2019-04-01T21:39:14.354Z,59.30
2019-04-01T21:43:20.314Z,59.47
2019-04-01T21:47:25.624Z,59.39
2019-04-01T21:51:33.064Z,59.06
2019-04-01T21:55:37.953Z,59.05
2019-04-01T21:59:42.848Z,59.29
2019-04-01T22:03:47.750Z,59.47
2019-04-01T22:07:52.650Z,59.18
2019-04-01T22:11:58.145Z,58.96
2019-04-01T22:16:03.313Z,59.00
2019-04-01T22:20:08.272Z,59.42
2019-04-01T22:24:13.184Z,59.34
2019-04-01T22:28:18.063Z,59.74
2019-04-01T22:32:22.976Z,60.00
2019-04-01T22:36:31.213Z,60.33
2019-04-01T22:40:34.516Z,60.26
2019-04-01T22:44:39.430Z,60.22
2019-04-01T22:48:44.326Z,59.77
2019-04-01T22:52:49.227Z,59.67
2019-04-01T22:56:54.111Z,59.25
2019-04-01T23:01:00.079Z,58.96
2019-04-01T23:05:06.210Z,58.93
2019-04-01T23:09:11.109Z,59.05
2019-04-01T23:13:16.078Z,59.09
2019-04-01T23:17:20.966Z,58.77
2019-04-01T23:21:25.869Z,58.87
2019-04-01T23:25:30.758Z,59.01
2019-04-01T23:29:35.667Z,59.54
2019-04-01T23:33:40.544Z,60.04
2019-04-01T23:37:45.429Z,60.17
2019-04-01T23:41:50.328Z,60.37
2019-04-01T23:45:55.232Z,60.70
2019-04-01T23:50:00.125Z,60.44
2019-04-01T23:54:05.021Z,60.40
2019-04-01T23:58:09.904Z,59.95
